sensor_id;sensor_type;location;lat;lon;timestamp;temperature;humidity
35804;DHT22;21924;51.934;7.414;2023-03-01T00:01:21;0.80;99.90
35804;DHT22;21924;51.934;7.414;2023-03-01T00:04:06;0.90;99.90
35804;DHT22;21924;51.934;7.414;2023-03-01T00:06:51;1.00;99.90
35804;DHT22;21924;51.934;7.414;2023-03-01T00:09:36;0.90;99.90
35804;DHT22;21924;51.934;7.414;2023-03-01T00:12:21;0.70;99.90
35804;DHT22;21924;51.934;7.414;2023-03-01T00:15:05;0.60;99.90
35804;DHT22;21924;51.934;7.414;2023-03-01T00:17:50;0.40;99.90
35804;DHT22;21924;51.934;7.414;2023-03-01T00:20:34;0.30;99.90
35804;DHT22;21924;51.934;7.414;2023-03-01T00:23:19;0.20;99.90
35804;DHT22;21924;51.934;7.414;2023-03-01T00:26:09;0.10;99.90
35804;DHT22;21924;51.934;7.414;2023-03-01T00:28:54;0.00;99.90
35804;DHT22;21924;51.934;7.414;2023-03-01T00:31:39;-0.10;99.90
35804;DHT22;21924;51.934;7.414;2023-03-01T00:34:23;-0.10;99.90
35804;DHT22;21924;51.934;7.414;2023-03-01T00:37:07;-0.20;99.90
35804;DHT22;21924;51.934;7.414;2023-03-01T00:39:51;-0.30;99.90
35804;DHT22;21924;51.934;7.414;2023-03-01T00:42:36;-0.30;99.90
35804;DHT22;21924;51.934;7.414;2023-03-01T00:45:20;-0.20;99.90
35804;DHT22;21924;51.934;7.414;2023-03-01T00:48:05;-0.20;99.90
35804;DHT22;21924;51.934;7.414;2023-03-01T00:50:49;-0.20;99.90
35804;DHT22;21924;51.934;7.414;2023-03-01T00:53:34;0.00;99.90
35804;DHT22;21924;51.934;7.414;2023-03-01T00:56:19;0.00;99.90
35804;DHT22;21924;51.934;7.414;2023-03-01T00:59:04;0.10;99.90
35804;DHT22;21924;51.934;7.414;2023-03-01T01:01:48;-0.10;99.90
35804;DHT22;21924;51.934;7.414;2023-03-01T01:04:32;-0.10;99.90
35804;DHT22;21924;51.934;7.414;2023-03-01T01:07:17;-0.10;99.90
35804;DHT22;21924;51.934;7.414;2023-03-01T01:10:02;-0.10;99.90
35804;DHT22;21924;51.934;7.414;2023-03-01T01:12:46;-0.20;99.90
35804;DHT22;21924;51.934;7.414;2023-03-01T01:15:34;-0.30;99.90
35804;DHT22;21924;51.934;7.414;2023-03-01T01:18:18;-0.30;99.90
35804;DHT22;21924;51.934;7.414;2023-03-01T01:21:06;-0.40;99.90
35804;DHT22;21924;51.934;7.414;2023-03-01T01:23:51;-0.50;99.90
35804;DHT22;21924;51.934;7.414;2023-03-01T01:26:35;-0.40;99.90
35804;DHT22;21924;51.934;7.414;2023-03-01T01:29:19;-0.50;99.90
35804;DHT22;21924;51.934;7.414;2023-03-01T01:32:04;-0.50;99.90
35804;DHT22;21924;51.934;7.414;2023-03-01T01:34:49;-0.50;99.90
35804;DHT22;21924;51.934;7.414;2023-03-01T01:37:33;-0.50;99.90
35804;DHT22;21924;51.934;7.414;2023-03-01T01:40:17;-0.50;99.90
35804;DHT22;21924;51.934;7.414;2023-03-01T01:43:01;-0.50;99.90
35804;DHT22;21924;51.934;7.414;2023-03-01T01:45:46;-0.50;99.90
35804;DHT22;21924;51.934;7.414;2023-03-01T01:48:45;-0.50;99.90
35804;DHT22;21924;51.934;7.414;2023-03-01T01:51:39;-0.40;99.90
35804;DHT22;21924;51.934;7.414;2023-03-01T01:54:32;-0.40;99.90
35804;DHT22;21924;51.934;7.414;2023-03-01T01:57:22;-0.40;99.90
35804;DHT22;21924;51.934;7.414;2023-03-01T02:00:11;-0.40;99.90
35804;DHT22;21924;51.934;7.414;2023-03-01T02:03:07;-0.40;99.90
35804;DHT22;21924;51.934;7.414;2023-03-01T02:08:50;-0.40;99.90
35804;DHT22;21924;51.934;7.414;2023-03-01T02:11:36;-0.50;99.90
35804;DHT22;21924;51.934;7.414;2023-03-01T02:14:21;-0.50;99.90
35804;DHT22;21924;51.934;7.414;2023-03-01T02:17:05;-0.40;99.90
35804;DHT22;21924;51.934;7.414;2023-03-01T02:22:53;-0.40;99.90
35804;DHT22;21924;51.934;7.414;2023-03-01T02:28:51;-0.50;99.90
35804;DHT22;21924;51.934;7.414;2023-03-01T02:31:35;-0.50;99.90
35804;DHT22;21924;51.934;7.414;2023-03-01T02:34:27;-0.50;99.90
35804;DHT22;21924;51.934;7.414;2023-03-01T02:37:15;-0.50;99.90
35804;DHT22;21924;51.934;7.414;2023-03-01T02:40:08;-0.50;99.90
35804;DHT22;21924;51.934;7.414;2023-03-01T02:42:57;-0.50;99.90
35804;DHT22;21924;51.934;7.414;2023-03-01T02:45:49;-0.50;99.90
35804;DHT22;21924;51.934;7.414;2023-03-01T02:48:47;-0.50;99.90
35804;DHT22;21924;51.934;7.414;2023-03-01T02:52:01;-0.50;99.90
35804;DHT22;21924;51.934;7.414;2023-03-01T02:54:59;-0.50;99.90
35804;DHT22;21924;51.934;7.414;2023-03-01T02:57:45;-0.60;99.90
35804;DHT22;21924;51.934;7.414;2023-03-01T03:00:36;-0.50;99.90
35804;DHT22;21924;51.934;7.414;2023-03-01T03:03:24;-0.60;99.90
35804;DHT22;21924;51.934;7.414;2023-03-01T03:06:09;-0.50;99.90
35804;DHT22;21924;51.934;7.414;2023-03-01T03:08:53;-0.60;99.90
35804;DHT22;21924;51.934;7.414;2023-03-01T03:11:38;-0.50;99.90
35804;DHT22;21924;51.934;7.414;2023-03-01T03:14:23;-0.50;99.90
35804;DHT22;21924;51.934;7.414;2023-03-01T03:17:07;-0.60;99.90
35804;DHT22;21924;51.934;7.414;2023-03-01T03:19:51;-0.60;99.90
35804;DHT22;21924;51.934;7.414;2023-03-01T03:22:36;-0.70;99.90
35804;DHT22;21924;51.934;7.414;2023-03-01T03:25:22;-0.60;99.90
35804;DHT22;21924;51.934;7.414;2023-03-01T03:28:07;-0.60;99.90
35804;DHT22;21924;51.934;7.414;2023-03-01T03:30:54;-0.60;99.90
35804;DHT22;21924;51.934;7.414;2023-03-01T03:33:38;-0.60;99.90
35804;DHT22;21924;51.934;7.414;2023-03-01T03:36:24;-0.60;99.90
35804;DHT22;21924;51.934;7.414;2023-03-01T03:39:08;-0.50;99.90
35804;DHT22;21924;51.934;7.414;2023-03-01T03:41:53;-0.50;99.90
35804;DHT22;21924;51.934;7.414;2023-03-01T03:44:37;-0.60;99.90
35804;DHT22;21924;51.934;7.414;2023-03-01T03:47:21;-0.60;99.90
35804;DHT22;21924;51.934;7.414;2023-03-01T03:50:06;-0.60;99.90
35804;DHT22;21924;51.934;7.414;2023-03-01T03:52:51;-0.70;99.90
35804;DHT22;21924;51.934;7.414;2023-03-01T03:55:35;-0.70;99.90
35804;DHT22;21924;51.934;7.414;2023-03-01T03:58:24;-0.60;99.90
35804;DHT22;21924;51.934;7.414;2023-03-01T04:01:09;-0.60;99.90
35804;DHT22;21924;51.934;7.414;2023-03-01T04:03:53;-0.50;99.90
35804;DHT22;21924;51.934;7.414;2023-03-01T04:06:38;-0.50;99.90
35804;DHT22;21924;51.934;7.414;2023-03-01T04:09:23;-0.50;99.90
35804;DHT22;21924;51.934;7.414;2023-03-01T04:12:07;-0.60;99.90
35804;DHT22;21924;51.934;7.414;2023-03-01T04:14:52;-0.60;99.90
35804;DHT22;21924;51.934;7.414;2023-03-01T04:17:36;-0.60;99.90
35804;DHT22;21924;51.934;7.414;2023-03-01T04:20:23;-0.60;99.90
35804;DHT22;21924;51.934;7.414;2023-03-01T04:23:18;-0.60;99.90
35804;DHT22;21924;51.934;7.414;2023-03-01T04:26:05;-0.60;99.90
35804;DHT22;21924;51.934;7.414;2023-03-01T04:28:50;-0.70;99.90
35804;DHT22;21924;51.934;7.414;2023-03-01T04:31:34;-0.70;99.90
35804;DHT22;21924;51.934;7.414;2023-03-01T04:34:19;-0.70;99.90
35804;DHT22;21924;51.934;7.414;2023-03-01T04:37:03;-0.70;99.90
35804;DHT22;21924;51.934;7.414;2023-03-01T04:39:47;-0.70;99.90
35804;DHT22;21924;51.934;7.414;2023-03-01T04:42:31;-0.70;99.90
35804;DHT22;21924;51.934;7.414;2023-03-01T04:45:16;-0.60;99.90
35804;DHT22;21924;51.934;7.414;2023-03-01T04:48:00;-0.60;99.90
35804;DHT22;21924;51.934;7.414;2023-03-01T04:50:45;-0.60;99.90
35804;DHT22;21924;51.934;7.414;2023-03-01T04:53:29;-0.60;99.90
35804;DHT22;21924;51.934;7.414;2023-03-01T04:56:14;-0.70;99.90
35804;DHT22;21924;51.934;7.414;2023-03-01T04:58:58;-0.70;99.90
35804;DHT22;21924;51.934;7.414;2023-03-01T05:01:44;-0.70;99.90
35804;DHT22;21924;51.934;7.414;2023-03-01T05:04:28;-0.70;99.90
35804;DHT22;21924;51.934;7.414;2023-03-01T05:07:14;-0.70;99.90
35804;DHT22;21924;51.934;7.414;2023-03-01T05:10:03;-0.80;99.90
35804;DHT22;21924;51.934;7.414;2023-03-01T05:12:47;-0.80;99.90
35804;DHT22;21924;51.934;7.414;2023-03-01T05:15:31;-0.80;99.90
35804;DHT22;21924;51.934;7.414;2023-03-01T05:18:16;-0.80;99.90
35804;DHT22;21924;51.934;7.414;2023-03-01T05:21:09;-0.80;99.90
35804;DHT22;21924;51.934;7.414;2023-03-01T05:23:54;-0.90;99.90
35804;DHT22;21924;51.934;7.414;2023-03-01T05:26:38;-0.90;99.90
35804;DHT22;21924;51.934;7.414;2023-03-01T05:29:26;-0.90;99.90
35804;DHT22;21924;51.934;7.414;2023-03-01T05:32:10;-0.90;99.90
35804;DHT22;21924;51.934;7.414;2023-03-01T05:34:59;-0.90;99.90
35804;DHT22;21924;51.934;7.414;2023-03-01T05:37:45;-1.00;99.90
35804;DHT22;21924;51.934;7.414;2023-03-01T05:40:29;-0.90;99.90
35804;DHT22;21924;51.934;7.414;2023-03-01T05:43:15;-1.00;99.90
35804;DHT22;21924;51.934;7.414;2023-03-01T05:46:00;-1.00;99.90
35804;DHT22;21924;51.934;7.414;2023-03-01T05:48:44;-1.00;99.90
35804;DHT22;21924;51.934;7.414;2023-03-01T05:51:28;-1.00;99.90
35804;DHT22;21924;51.934;7.414;2023-03-01T05:54:13;-0.90;99.90
35804;DHT22;21924;51.934;7.414;2023-03-01T05:56:57;-1.00;99.90
35804;DHT22;21924;51.934;7.414;2023-03-01T05:59:41;-1.00;99.90
35804;DHT22;21924;51.934;7.414;2023-03-01T06:02:25;-1.00;99.90
35804;DHT22;21924;51.934;7.414;2023-03-01T06:05:12;-1.00;99.90
35804;DHT22;21924;51.934;7.414;2023-03-01T06:08:01;-1.00;99.90
35804;DHT22;21924;51.934;7.414;2023-03-01T06:10:46;-1.00;99.90
35804;DHT22;21924;51.934;7.414;2023-03-01T06:13:31;-0.90;99.90
35804;DHT22;21924;51.934;7.414;2023-03-01T06:16:15;-1.00;99.90
35804;DHT22;21924;51.934;7.414;2023-03-01T06:18:59;-1.00;99.90
35804;DHT22;21924;51.934;7.414;2023-03-01T06:21:44;-1.10;99.90
35804;DHT22;21924;51.934;7.414;2023-03-01T06:24:28;-1.10;99.90
35804;DHT22;21924;51.934;7.414;2023-03-01T06:27:13;-1.10;99.90
35804;DHT22;21924;51.934;7.414;2023-03-01T06:29:57;-1.10;99.90
35804;DHT22;21924;51.934;7.414;2023-03-01T06:32:41;-1.00;99.90
35804;DHT22;21924;51.934;7.414;2023-03-01T06:35:29;-1.00;99.90
35804;DHT22;21924;51.934;7.414;2023-03-01T06:38:14;-1.00;99.90
35804;DHT22;21924;51.934;7.414;2023-03-01T06:40:59;-0.90;99.90
35804;DHT22;21924;51.934;7.414;2023-03-01T06:43:43;-0.80;99.90
35804;DHT22;21924;51.934;7.414;2023-03-01T06:46:27;-0.90;99.90
35804;DHT22;21924;51.934;7.414;2023-03-01T06:49:11;-0.80;99.90
35804;DHT22;21924;51.934;7.414;2023-03-01T06:51:56;-0.90;99.90
35804;DHT22;21924;51.934;7.414;2023-03-01T06:54:40;-0.90;99.90
35804;DHT22;21924;51.934;7.414;2023-03-01T06:57:25;-0.90;99.90
35804;DHT22;21924;51.934;7.414;2023-03-01T07:00:10;-0.90;99.90
35804;DHT22;21924;51.934;7.414;2023-03-01T07:02:56;-0.80;99.90
35804;DHT22;21924;51.934;7.414;2023-03-01T07:05:41;-0.70;99.90
35804;DHT22;21924;51.934;7.414;2023-03-01T07:08:26;-0.70;99.90
35804;DHT22;21924;51.934;7.414;2023-03-01T07:11:10;-0.60;99.90
35804;DHT22;21924;51.934;7.414;2023-03-01T07:13:54;-0.60;99.90
35804;DHT22;21924;51.934;7.414;2023-03-01T07:16:39;-0.50;99.90
35804;DHT22;21924;51.934;7.414;2023-03-01T07:19:23;-0.50;99.90
35804;DHT22;21924;51.934;7.414;2023-03-01T07:22:08;-0.40;99.90
35804;DHT22;21924;51.934;7.414;2023-03-01T07:24:53;-0.40;99.90
35804;DHT22;21924;51.934;7.414;2023-03-01T07:27:37;-0.40;99.90
35804;DHT22;21924;51.934;7.414;2023-03-01T07:30:22;-0.30;99.90
35804;DHT22;21924;51.934;7.414;2023-03-01T07:33:06;-0.30;99.90
35804;DHT22;21924;51.934;7.414;2023-03-01T07:35:56;-0.20;99.90
35804;DHT22;21924;51.934;7.414;2023-03-01T07:38:40;-0.10;99.90
35804;DHT22;21924;51.934;7.414;2023-03-01T07:41:25;-0.10;99.90
35804;DHT22;21924;51.934;7.414;2023-03-01T07:44:09;-0.10;99.90
35804;DHT22;21924;51.934;7.414;2023-03-01T07:46:53;0.00;99.90
35804;DHT22;21924;51.934;7.414;2023-03-01T07:49:40;0.10;99.90
35804;DHT22;21924;51.934;7.414;2023-03-01T07:52:24;0.10;99.90
35804;DHT22;21924;51.934;7.414;2023-03-01T07:55:09;0.20;99.90
35804;DHT22;21924;51.934;7.414;2023-03-01T07:57:53;0.20;99.90
35804;DHT22;21924;51.934;7.414;2023-03-01T08:00:37;0.20;99.90
35804;DHT22;21924;51.934;7.414;2023-03-01T08:03:22;0.20;99.90
35804;DHT22;21924;51.934;7.414;2023-03-01T08:06:08;0.20;99.90
35804;DHT22;21924;51.934;7.414;2023-03-01T08:08:52;0.20;99.90
35804;DHT22;21924;51.934;7.414;2023-03-01T08:11:39;0.30;99.90
35804;DHT22;21924;51.934;7.414;2023-03-01T08:14:23;0.40;99.90
35804;DHT22;21924;51.934;7.414;2023-03-01T08:17:07;0.50;99.90
35804;DHT22;21924;51.934;7.414;2023-03-01T08:19:51;0.50;99.90
35804;DHT22;21924;51.934;7.414;2023-03-01T08:22:36;0.60;99.90
35804;DHT22;21924;51.934;7.414;2023-03-01T08:25:20;0.60;99.90
35804;DHT22;21924;51.934;7.414;2023-03-01T08:28:05;0.70;99.90
35804;DHT22;21924;51.934;7.414;2023-03-01T08:30:49;0.80;99.90
35804;DHT22;21924;51.934;7.414;2023-03-01T08:33:33;0.90;99.90
35804;DHT22;21924;51.934;7.414;2023-03-01T08:36:18;1.00;99.90
35804;DHT22;21924;51.934;7.414;2023-03-01T08:39:04;1.10;99.90
35804;DHT22;21924;51.934;7.414;2023-03-01T08:41:49;1.10;99.90
35804;DHT22;21924;51.934;7.414;2023-03-01T08:44:33;1.20;99.90
35804;DHT22;21924;51.934;7.414;2023-03-01T08:47:18;1.30;99.90
35804;DHT22;21924;51.934;7.414;2023-03-01T08:50:03;1.30;99.90
35804;DHT22;21924;51.934;7.414;2023-03-01T08:52:48;1.40;99.90
35804;DHT22;21924;51.934;7.414;2023-03-01T08:55:33;1.50;99.90
35804;DHT22;21924;51.934;7.414;2023-03-01T08:58:17;1.60;99.90
35804;DHT22;21924;51.934;7.414;2023-03-01T09:01:07;1.60;99.90
35804;DHT22;21924;51.934;7.414;2023-03-01T09:03:51;1.70;99.90
35804;DHT22;21924;51.934;7.414;2023-03-01T09:06:36;1.90;99.90
35804;DHT22;21924;51.934;7.414;2023-03-01T09:09:20;2.00;99.90
35804;DHT22;21924;51.934;7.414;2023-03-01T09:12:05;2.10;99.90
35804;DHT22;21924;51.934;7.414;2023-03-01T09:14:50;2.30;99.90
35804;DHT22;21924;51.934;7.414;2023-03-01T09:17:34;2.30;99.90
35804;DHT22;21924;51.934;7.414;2023-03-01T09:20:18;2.40;99.90
35804;DHT22;21924;51.934;7.414;2023-03-01T09:23:03;2.50;99.90
35804;DHT22;21924;51.934;7.414;2023-03-01T09:25:47;2.60;99.90
35804;DHT22;21924;51.934;7.414;2023-03-01T09:28:31;2.70;99.90
35804;DHT22;21924;51.934;7.414;2023-03-01T09:31:17;2.80;99.90
35804;DHT22;21924;51.934;7.414;2023-03-01T09:34:01;2.80;99.90
35804;DHT22;21924;51.934;7.414;2023-03-01T09:36:46;3.00;99.90
35804;DHT22;21924;51.934;7.414;2023-03-01T09:39:30;3.00;99.90
35804;DHT22;21924;51.934;7.414;2023-03-01T09:42:16;3.10;99.90
35804;DHT22;21924;51.934;7.414;2023-03-01T09:45:05;3.20;99.90
35804;DHT22;21924;51.934;7.414;2023-03-01T09:47:49;3.20;99.90
35804;DHT22;21924;51.934;7.414;2023-03-01T09:50:36;3.30;99.90
35804;DHT22;21924;51.934;7.414;2023-03-01T09:53:30;3.40;99.90
35804;DHT22;21924;51.934;7.414;2023-03-01T09:56:39;3.40;99.90
35804;DHT22;21924;51.934;7.414;2023-03-01T09:59:29;3.50;99.90
35804;DHT22;21924;51.934;7.414;2023-03-01T10:08:25;3.70;99.90
35804;DHT22;21924;51.934;7.414;2023-03-01T10:11:28;3.80;99.90
35804;DHT22;21924;51.934;7.414;2023-03-01T10:17:12;3.90;99.90
35804;DHT22;21924;51.934;7.414;2023-03-01T10:20:22;4.00;99.90
35804;DHT22;21924;51.934;7.414;2023-03-01T10:23:08;4.10;99.90
35804;DHT22;21924;51.934;7.414;2023-03-01T10:26:47;4.10;99.90
35804;DHT22;21924;51.934;7.414;2023-03-01T10:29:11;4.10;99.90
35804;DHT22;21924;51.934;7.414;2023-03-01T10:31:56;4.30;99.90
35804;DHT22;21924;51.934;7.414;2023-03-01T10:34:40;4.30;99.90
35804;DHT22;21924;51.934;7.414;2023-03-01T10:37:25;4.40;99.90
35804;DHT22;21924;51.934;7.414;2023-03-01T10:40:11;4.60;99.90
35804;DHT22;21924;51.934;7.414;2023-03-01T10:42:58;4.70;99.90
35804;DHT22;21924;51.934;7.414;2023-03-01T10:45:42;4.50;99.90
35804;DHT22;21924;51.934;7.414;2023-03-01T10:48:27;4.60;99.90
35804;DHT22;21924;51.934;7.414;2023-03-01T10:51:17;4.60;99.90
35804;DHT22;21924;51.934;7.414;2023-03-01T10:54:04;4.50;99.90
35804;DHT22;21924;51.934;7.414;2023-03-01T10:56:51;4.70;99.90
35804;DHT22;21924;51.934;7.414;2023-03-01T10:59:38;5.00;99.90
35804;DHT22;21924;51.934;7.414;2023-03-01T11:02:29;5.20;99.90
35804;DHT22;21924;51.934;7.414;2023-03-01T11:08:00;5.10;99.90
35804;DHT22;21924;51.934;7.414;2023-03-01T11:10:44;5.10;99.90
35804;DHT22;21924;51.934;7.414;2023-03-01T11:13:29;5.30;99.90
35804;DHT22;21924;51.934;7.414;2023-03-01T11:16:13;5.20;99.90
35804;DHT22;21924;51.934;7.414;2023-03-01T11:19:00;5.40;99.90
35804;DHT22;21924;51.934;7.414;2023-03-01T11:24:43;5.50;99.90
35804;DHT22;21924;51.934;7.414;2023-03-01T11:27:32;5.50;99.90
35804;DHT22;21924;51.934;7.414;2023-03-01T11:36:26;5.70;99.90
35804;DHT22;21924;51.934;7.414;2023-03-01T11:39:34;6.00;99.90
35804;DHT22;21924;51.934;7.414;2023-03-01T11:45:24;6.10;99.90
35804;DHT22;21924;51.934;7.414;2023-03-01T12:12:48;6.60;99.90
35804;DHT22;21924;51.934;7.414;2023-03-01T12:25:05;7.00;99.90
35804;DHT22;21924;51.934;7.414;2023-03-01T12:28:32;6.80;99.90
35804;DHT22;21924;51.934;7.414;2023-03-01T12:31:33;6.50;99.90
35804;DHT22;21924;51.934;7.414;2023-03-01T12:38:37;6.40;99.90
35804;DHT22;21924;51.934;7.414;2023-03-01T12:48:01;6.30;99.90
35804;DHT22;21924;51.934;7.414;2023-03-01T12:50:54;6.40;99.90
35804;DHT22;21924;51.934;7.414;2023-03-01T12:53:42;6.70;99.90
35804;DHT22;21924;51.934;7.414;2023-03-01T12:56:29;6.80;99.90
35804;DHT22;21924;51.934;7.414;2023-03-01T13:08:24;6.90;99.90
35804;DHT22;21924;51.934;7.414;2023-03-01T13:11:18;7.00;99.90
35804;DHT22;21924;51.934;7.414;2023-03-01T13:17:30;7.20;99.90
35804;DHT22;21924;51.934;7.414;2023-03-01T13:20:19;7.30;99.90
35804;DHT22;21924;51.934;7.414;2023-03-01T13:26:26;7.60;99.90
35804;DHT22;21924;51.934;7.414;2023-03-01T13:29:25;7.50;99.90
35804;DHT22;21924;51.934;7.414;2023-03-01T13:44:35;7.20;99.90
35804;DHT22;21924;51.934;7.414;2023-03-01T13:47:20;7.20;99.90
35804;DHT22;21924;51.934;7.414;2023-03-01T13:50:06;7.20;99.90
35804;DHT22;21924;51.934;7.414;2023-03-01T13:55:48;6.70;99.90
35804;DHT22;21924;51.934;7.414;2023-03-01T13:58:53;6.70;99.90
35804;DHT22;21924;51.934;7.414;2023-03-01T14:01:39;6.60;99.90
35804;DHT22;21924;51.934;7.414;2023-03-01T14:04:26;6.50;99.90
35804;DHT22;21924;51.934;7.414;2023-03-01T14:07:20;6.50;99.90
35804;DHT22;21924;51.934;7.414;2023-03-01T14:10:05;6.50;99.90
35804;DHT22;21924;51.934;7.414;2023-03-01T14:13:22;6.60;99.90
35804;DHT22;21924;51.934;7.414;2023-03-01T14:16:30;6.60;99.90
35804;DHT22;21924;51.934;7.414;2023-03-01T14:19:19;6.60;99.90
35804;DHT22;21924;51.934;7.414;2023-03-01T14:22:23;6.60;99.90
35804;DHT22;21924;51.934;7.414;2023-03-01T14:25:31;6.60;99.90
35804;DHT22;21924;51.934;7.414;2023-03-01T14:28:21;6.60;99.90
35804;DHT22;21924;51.934;7.414;2023-03-01T14:31:32;6.60;99.90
35804;DHT22;21924;51.934;7.414;2023-03-01T14:34:20;6.60;99.90
35804;DHT22;21924;51.934;7.414;2023-03-01T14:40:23;6.50;99.90
35804;DHT22;21924;51.934;7.414;2023-03-01T14:43:13;6.50;99.90
35804;DHT22;21924;51.934;7.414;2023-03-01T14:46:00;6.50;99.90
35804;DHT22;21924;51.934;7.414;2023-03-01T14:48:44;6.50;99.90
35804;DHT22;21924;51.934;7.414;2023-03-01T14:51:29;6.40;99.90
35804;DHT22;21924;51.934;7.414;2023-03-01T14:54:31;6.40;99.90
35804;DHT22;21924;51.934;7.414;2023-03-01T14:57:22;6.40;99.90
35804;DHT22;21924;51.934;7.414;2023-03-01T15:00:07;6.40;99.90
35804;DHT22;21924;51.934;7.414;2023-03-01T15:02:54;6.30;99.90
35804;DHT22;21924;51.934;7.414;2023-03-01T15:05:40;6.30;99.90
35804;DHT22;21924;51.934;7.414;2023-03-01T15:08:25;6.30;99.90
35804;DHT22;21924;51.934;7.414;2023-03-01T15:13:58;6.20;99.90
35804;DHT22;21924;51.934;7.414;2023-03-01T15:16:43;6.20;99.90
35804;DHT22;21924;51.934;7.414;2023-03-01T15:19:29;6.20;99.90
35804;DHT22;21924;51.934;7.414;2023-03-01T15:22:17;6.20;99.90
35804;DHT22;21924;51.934;7.414;2023-03-01T15:25:01;6.10;99.90
35804;DHT22;21924;51.934;7.414;2023-03-01T15:27:46;6.10;99.90
35804;DHT22;21924;51.934;7.414;2023-03-01T15:30:33;6.10;99.90
35804;DHT22;21924;51.934;7.414;2023-03-01T15:36:31;6.10;99.90
35804;DHT22;21924;51.934;7.414;2023-03-01T15:45:21;6.00;99.90
35804;DHT22;21924;51.934;7.414;2023-03-01T15:48:17;6.00;99.90
35804;DHT22;21924;51.934;7.414;2023-03-01T15:51:03;6.00;99.90
35804;DHT22;21924;51.934;7.414;2023-03-01T15:53:52;6.00;99.90
35804;DHT22;21924;51.934;7.414;2023-03-01T15:56:37;5.90;99.90
35804;DHT22;21924;51.934;7.414;2023-03-01T15:59:21;5.90;99.90
35804;DHT22;21924;51.934;7.414;2023-03-01T16:02:13;5.90;99.90
35804;DHT22;21924;51.934;7.414;2023-03-01T16:04:58;5.80;99.90
35804;DHT22;21924;51.934;7.414;2023-03-01T16:07:42;5.80;99.90
35804;DHT22;21924;51.934;7.414;2023-03-01T16:10:26;5.80;99.90
35804;DHT22;21924;51.934;7.414;2023-03-01T16:13:14;5.70;99.90
35804;DHT22;21924;51.934;7.414;2023-03-01T16:15:58;5.70;99.90
35804;DHT22;21924;51.934;7.414;2023-03-01T16:18:44;5.60;99.90
35804;DHT22;21924;51.934;7.414;2023-03-01T16:21:29;5.60;99.90
35804;DHT22;21924;51.934;7.414;2023-03-01T16:24:14;5.50;99.90
35804;DHT22;21924;51.934;7.414;2023-03-01T16:26:58;5.40;99.90
35804;DHT22;21924;51.934;7.414;2023-03-01T16:29:42;5.40;99.90
35804;DHT22;21924;51.934;7.414;2023-03-01T16:32:27;5.40;99.90
35804;DHT22;21924;51.934;7.414;2023-03-01T16:35:14;5.30;99.90
35804;DHT22;21924;51.934;7.414;2023-03-01T16:37:59;5.30;99.90
35804;DHT22;21924;51.934;7.414;2023-03-01T16:40:47;5.30;99.90
35804;DHT22;21924;51.934;7.414;2023-03-01T16:43:32;5.20;99.90
35804;DHT22;21924;51.934;7.414;2023-03-01T16:46:19;5.20;99.90
35804;DHT22;21924;51.934;7.414;2023-03-01T16:49:04;5.10;99.90
35804;DHT22;21924;51.934;7.414;2023-03-01T16:51:48;5.00;99.90
35804;DHT22;21924;51.934;7.414;2023-03-01T16:54:33;5.00;99.90
35804;DHT22;21924;51.934;7.414;2023-03-01T16:57:17;5.00;99.90
35804;DHT22;21924;51.934;7.414;2023-03-01T17:00:02;4.90;99.90
35804;DHT22;21924;51.934;7.414;2023-03-01T17:02:49;4.90;99.90
35804;DHT22;21924;51.934;7.414;2023-03-01T17:05:33;4.90;99.90
35804;DHT22;21924;51.934;7.414;2023-03-01T17:08:18;4.80;99.90
35804;DHT22;21924;51.934;7.414;2023-03-01T17:11:10;4.70;99.90
35804;DHT22;21924;51.934;7.414;2023-03-01T17:13:55;4.70;99.90
35804;DHT22;21924;51.934;7.414;2023-03-01T17:16:39;4.70;99.90
35804;DHT22;21924;51.934;7.414;2023-03-01T17:19:23;4.60;99.90
35804;DHT22;21924;51.934;7.414;2023-03-01T17:22:08;4.50;99.90
35804;DHT22;21924;51.934;7.414;2023-03-01T17:24:53;4.40;99.90
35804;DHT22;21924;51.934;7.414;2023-03-01T17:27:38;4.20;99.90
35804;DHT22;21924;51.934;7.414;2023-03-01T17:30:23;4.20;99.90
35804;DHT22;21924;51.934;7.414;2023-03-01T17:33:07;4.00;99.90
35804;DHT22;21924;51.934;7.414;2023-03-01T17:35:51;4.10;99.90
35804;DHT22;21924;51.934;7.414;2023-03-01T17:38:36;4.00;99.90
35804;DHT22;21924;51.934;7.414;2023-03-01T17:41:20;4.00;99.90
35804;DHT22;21924;51.934;7.414;2023-03-01T17:44:06;4.10;99.90
35804;DHT22;21924;51.934;7.414;2023-03-01T17:46:50;4.00;99.90
35804;DHT22;21924;51.934;7.414;2023-03-01T17:49:35;3.80;99.90
35804;DHT22;21924;51.934;7.414;2023-03-01T17:52:19;3.80;99.90
35804;DHT22;21924;51.934;7.414;2023-03-01T17:55:08;3.90;99.90
35804;DHT22;21924;51.934;7.414;2023-03-01T17:57:52;3.90;99.90
35804;DHT22;21924;51.934;7.414;2023-03-01T18:00:37;3.90;99.90
35804;DHT22;21924;51.934;7.414;2023-03-01T18:03:21;3.90;99.90
35804;DHT22;21924;51.934;7.414;2023-03-01T18:06:17;3.80;99.90
35804;DHT22;21924;51.934;7.414;2023-03-01T18:09:02;3.80;99.90
35804;DHT22;21924;51.934;7.414;2023-03-01T18:11:47;3.70;99.90
35804;DHT22;21924;51.934;7.414;2023-03-01T18:14:31;3.70;99.90
35804;DHT22;21924;51.934;7.414;2023-03-01T18:17:17;3.60;99.90
35804;DHT22;21924;51.934;7.414;2023-03-01T18:20:01;3.50;99.90
35804;DHT22;21924;51.934;7.414;2023-03-01T18:22:46;3.50;99.90
35804;DHT22;21924;51.934;7.414;2023-03-01T18:25:30;3.40;99.90
35804;DHT22;21924;51.934;7.414;2023-03-01T18:28:15;3.30;99.90
35804;DHT22;21924;51.934;7.414;2023-03-01T18:31:01;3.40;99.90
35804;DHT22;21924;51.934;7.414;2023-03-01T18:33:47;3.40;99.90
35804;DHT22;21924;51.934;7.414;2023-03-01T18:36:33;3.30;99.90
35804;DHT22;21924;51.934;7.414;2023-03-01T18:39:18;3.30;99.90
35804;DHT22;21924;51.934;7.414;2023-03-01T18:42:03;3.20;99.90
35804;DHT22;21924;51.934;7.414;2023-03-01T18:44:48;3.20;99.90
35804;DHT22;21924;51.934;7.414;2023-03-01T18:47:32;3.20;99.90
35804;DHT22;21924;51.934;7.414;2023-03-01T18:50:17;3.20;99.90
35804;DHT22;21924;51.934;7.414;2023-03-01T18:53:01;3.20;99.90
35804;DHT22;21924;51.934;7.414;2023-03-01T18:55:46;3.20;99.90
35804;DHT22;21924;51.934;7.414;2023-03-01T18:58:30;3.20;99.90
35804;DHT22;21924;51.934;7.414;2023-03-01T19:01:20;3.20;99.90
35804;DHT22;21924;51.934;7.414;2023-03-01T19:04:04;3.00;99.90
35804;DHT22;21924;51.934;7.414;2023-03-01T19:06:49;3.10;99.90
35804;DHT22;21924;51.934;7.414;2023-03-01T19:09:33;3.00;99.90
35804;DHT22;21924;51.934;7.414;2023-03-01T19:12:18;3.00;99.90
35804;DHT22;21924;51.934;7.414;2023-03-01T19:15:03;3.10;99.90
35804;DHT22;21924;51.934;7.414;2023-03-01T19:17:48;3.00;99.90
35804;DHT22;21924;51.934;7.414;2023-03-01T19:20:32;3.10;99.90
35804;DHT22;21924;51.934;7.414;2023-03-01T19:23:16;3.10;99.90
35804;DHT22;21924;51.934;7.414;2023-03-01T19:26:05;3.00;99.90
35804;DHT22;21924;51.934;7.414;2023-03-01T19:28:50;3.00;99.90
35804;DHT22;21924;51.934;7.414;2023-03-01T19:31:34;3.00;99.90
35804;DHT22;21924;51.934;7.414;2023-03-01T19:34:19;3.00;99.90
35804;DHT22;21924;51.934;7.414;2023-03-01T19:37:05;3.00;99.90
35804;DHT22;21924;51.934;7.414;2023-03-01T19:39:49;3.00;99.90
35804;DHT22;21924;51.934;7.414;2023-03-01T19:42:34;3.00;99.90
35804;DHT22;21924;51.934;7.414;2023-03-01T19:45:18;3.00;99.90
35804;DHT22;21924;51.934;7.414;2023-03-01T19:48:03;3.00;99.90